sensor_id;sensor_type;location;lat;lon;timestamp;temperature;humidity
23731;DHT22;12046;44.702;10.622;2023-07-20T00:00:31;26.40;90.70
23731;DHT22;12046;44.702;10.622;2023-07-20T00:03:13;26.40;90.90
23731;DHT22;12046;44.702;10.622;2023-07-20T00:05:45;26.50;91.00
23731;DHT22;12046;44.702;10.622;2023-07-20T00:08:11;26.50;91.00
23731;DHT22;12046;44.702;10.622;2023-07-20T00:10:37;26.50;91.00
23731;DHT22;12046;44.702;10.622;2023-07-20T00:13:03;26.60;91.00
23731;DHT22;12046;44.702;10.622;2023-07-20T00:15:28;26.70;91.00
23731;DHT22;12046;44.702;10.622;2023-07-20T00:17:54;26.80;91.00
23731;DHT22;12046;44.702;10.622;2023-07-20T00:20:21;26.90;91.10
23731;DHT22;12046;44.702;10.622;2023-07-20T00:22:53;27.00;91.40
23731;DHT22;12046;44.702;10.622;2023-07-20T00:25:35;27.00;91.20
23731;DHT22;12046;44.702;10.622;2023-07-20T00:28:01;26.90;91.20
23731;DHT22;12046;44.702;10.622;2023-07-20T00:33:54;26.90;91.30
23731;DHT22;12046;44.702;10.622;2023-07-20T00:36:34;26.90;91.30
23731;DHT22;12046;44.702;10.622;2023-07-20T00:39:12;26.90;91.40
23731;DHT22;12046;44.702;10.622;2023-07-20T00:41:43;26.90;91.40
23731;DHT22;12046;44.702;10.622;2023-07-20T00:44:15;26.90;91.40
23731;DHT22;12046;44.702;10.622;2023-07-20T00:46:47;26.90;91.40
23731;DHT22;12046;44.702;10.622;2023-07-20T00:49:33;26.90;91.40
23731;DHT22;12046;44.702;10.622;2023-07-20T00:52:31;26.90;91.40
23731;DHT22;12046;44.702;10.622;2023-07-20T00:55:04;26.90;91.40
23731;DHT22;12046;44.702;10.622;2023-07-20T00:57:59;26.90;91.50
23731;DHT22;12046;44.702;10.622;2023-07-20T01:00:25;26.90;91.50
23731;DHT22;12046;44.702;10.622;2023-07-20T01:03:03;26.90;91.50
23731;DHT22;12046;44.702;10.622;2023-07-20T01:09:19;27.00;91.60
23731;DHT22;12046;44.702;10.622;2023-07-20T01:12:20;26.90;91.80
23731;DHT22;12046;44.702;10.622;2023-07-20T01:14:51;26.90;92.10
23731;DHT22;12046;44.702;10.622;2023-07-20T01:17:18;26.80;92.30
23731;DHT22;12046;44.702;10.622;2023-07-20T01:19:46;26.80;92.40
23731;DHT22;12046;44.702;10.622;2023-07-20T01:33:02;26.50;93.10
23731;DHT22;12046;44.702;10.622;2023-07-20T01:35:29;26.50;93.20
23731;DHT22;12046;44.702;10.622;2023-07-20T01:38:16;26.50;93.20
23731;DHT22;12046;44.702;10.622;2023-07-20T01:40:46;26.40;93.30
23731;DHT22;12046;44.702;10.622;2023-07-20T01:43:15;26.40;93.40
23731;DHT22;12046;44.702;10.622;2023-07-20T01:45:44;26.40;93.50
23731;DHT22;12046;44.702;10.622;2023-07-20T01:48:10;26.30;93.70
23731;DHT22;12046;44.702;10.622;2023-07-20T01:50:36;26.20;93.80
23731;DHT22;12046;44.702;10.622;2023-07-20T01:53:02;26.20;93.90
23731;DHT22;12046;44.702;10.622;2023-07-20T01:55:28;26.20;94.00
23731;DHT22;12046;44.702;10.622;2023-07-20T01:57:55;26.10;94.00
23731;DHT22;12046;44.702;10.622;2023-07-20T02:00:20;26.10;94.10
23731;DHT22;12046;44.702;10.622;2023-07-20T02:02:46;26.00;94.20
23731;DHT22;12046;44.702;10.622;2023-07-20T02:05:12;26.00;94.20
23731;DHT22;12046;44.702;10.622;2023-07-20T02:07:38;26.00;94.30
23731;DHT22;12046;44.702;10.622;2023-07-20T02:10:05;25.90;94.30
23731;DHT22;12046;44.702;10.622;2023-07-20T02:12:31;25.90;94.40
23731;DHT22;12046;44.702;10.622;2023-07-20T02:14:57;25.90;94.40
23731;DHT22;12046;44.702;10.622;2023-07-20T02:17:22;25.90;94.50
23731;DHT22;12046;44.702;10.622;2023-07-20T02:19:52;26.00;94.50
23731;DHT22;12046;44.702;10.622;2023-07-20T02:22:18;26.00;94.60
23731;DHT22;12046;44.702;10.622;2023-07-20T02:24:44;26.00;94.60
23731;DHT22;12046;44.702;10.622;2023-07-20T02:27:09;26.00;94.60
23731;DHT22;12046;44.702;10.622;2023-07-20T02:29:35;26.10;94.70
23731;DHT22;12046;44.702;10.622;2023-07-20T02:32:02;26.10;94.80
23731;DHT22;12046;44.702;10.622;2023-07-20T02:34:27;26.10;94.90
23731;DHT22;12046;44.702;10.622;2023-07-20T02:36:54;26.00;94.90
23731;DHT22;12046;44.702;10.622;2023-07-20T02:39:22;26.00;95.10
23731;DHT22;12046;44.702;10.622;2023-07-20T02:41:48;25.90;95.60
23731;DHT22;12046;44.702;10.622;2023-07-20T02:44:16;25.80;95.50
23731;DHT22;12046;44.702;10.622;2023-07-20T02:46:42;25.70;95.70
23731;DHT22;12046;44.702;10.622;2023-07-20T02:49:08;25.70;96.00
23731;DHT22;12046;44.702;10.622;2023-07-20T02:51:34;25.50;96.30
23731;DHT22;12046;44.702;10.622;2023-07-20T02:54:00;25.40;96.50
23731;DHT22;12046;44.702;10.622;2023-07-20T02:56:26;25.40;96.80
23731;DHT22;12046;44.702;10.622;2023-07-20T02:58:51;25.40;97.00
23731;DHT22;12046;44.702;10.622;2023-07-20T03:01:20;25.30;97.10
23731;DHT22;12046;44.702;10.622;2023-07-20T03:03:52;25.30;97.30
23731;DHT22;12046;44.702;10.622;2023-07-20T03:06:18;25.20;97.40
23731;DHT22;12046;44.702;10.622;2023-07-20T03:08:43;25.20;97.50
23731;DHT22;12046;44.702;10.622;2023-07-20T03:11:11;25.10;97.50
23731;DHT22;12046;44.702;10.622;2023-07-20T03:13:36;25.00;97.60
23731;DHT22;12046;44.702;10.622;2023-07-20T03:16:05;24.90;97.90
23731;DHT22;12046;44.702;10.622;2023-07-20T03:18:31;24.90;98.10
23731;DHT22;12046;44.702;10.622;2023-07-20T03:20:57;24.80;98.30
23731;DHT22;12046;44.702;10.622;2023-07-20T03:23:22;24.70;98.40
23731;DHT22;12046;44.702;10.622;2023-07-20T03:25:48;24.70;98.60
23731;DHT22;12046;44.702;10.622;2023-07-20T03:28:14;24.50;98.70
23731;DHT22;12046;44.702;10.622;2023-07-20T03:30:41;24.50;98.80
23731;DHT22;12046;44.702;10.622;2023-07-20T03:33:06;24.40;98.90
23731;DHT22;12046;44.702;10.622;2023-07-20T03:35:32;24.50;99.00
23731;DHT22;12046;44.702;10.622;2023-07-20T03:37:58;24.50;99.00
23731;DHT22;12046;44.702;10.622;2023-07-20T03:40:23;24.40;99.00
23731;DHT22;12046;44.702;10.622;2023-07-20T03:42:50;24.40;99.00
23731;DHT22;12046;44.702;10.622;2023-07-20T03:45:16;24.40;99.00
23731;DHT22;12046;44.702;10.622;2023-07-20T03:47:42;24.40;99.00
23731;DHT22;12046;44.702;10.622;2023-07-20T03:50:08;24.40;99.10
23731;DHT22;12046;44.702;10.622;2023-07-20T03:52:35;24.30;99.10
23731;DHT22;12046;44.702;10.622;2023-07-20T03:55:01;24.30;99.20
23731;DHT22;12046;44.702;10.622;2023-07-20T03:57:26;24.40;99.30
23731;DHT22;12046;44.702;10.622;2023-07-20T03:59:53;24.40;99.40
23731;DHT22;12046;44.702;10.622;2023-07-20T04:02:20;24.40;99.40
23731;DHT22;12046;44.702;10.622;2023-07-20T04:04:46;24.40;99.40
23731;DHT22;12046;44.702;10.622;2023-07-20T04:07:11;24.40;99.50
23731;DHT22;12046;44.702;10.622;2023-07-20T04:09:37;24.50;99.60
23731;DHT22;12046;44.702;10.622;2023-07-20T04:12:03;24.50;99.60
23731;DHT22;12046;44.702;10.622;2023-07-20T04:14:29;24.60;99.60
23731;DHT22;12046;44.702;10.622;2023-07-20T04:16:55;24.70;99.50
23731;DHT22;12046;44.702;10.622;2023-07-20T04:19:21;24.80;99.50
23731;DHT22;12046;44.702;10.622;2023-07-20T04:21:47;24.80;99.40
23731;DHT22;12046;44.702;10.622;2023-07-20T04:24:13;24.90;99.20
23731;DHT22;12046;44.702;10.622;2023-07-20T04:26:38;25.00;99.10
23731;DHT22;12046;44.702;10.622;2023-07-20T04:29:04;25.00;98.90
23731;DHT22;12046;44.702;10.622;2023-07-20T04:31:30;25.10;98.70
23731;DHT22;12046;44.702;10.622;2023-07-20T04:33:58;25.20;98.60
23731;DHT22;12046;44.702;10.622;2023-07-20T04:36:24;25.20;98.40
23731;DHT22;12046;44.702;10.622;2023-07-20T04:38:50;25.30;98.30
23731;DHT22;12046;44.702;10.622;2023-07-20T04:41:15;25.30;98.20
23731;DHT22;12046;44.702;10.622;2023-07-20T04:43:42;25.40;98.10
23731;DHT22;12046;44.702;10.622;2023-07-20T04:46:11;25.50;98.00
23731;DHT22;12046;44.702;10.622;2023-07-20T04:48:37;25.50;97.80
23731;DHT22;12046;44.702;10.622;2023-07-20T04:51:03;25.60;97.70
23731;DHT22;12046;44.702;10.622;2023-07-20T04:53:29;25.60;97.60
23731;DHT22;12046;44.702;10.622;2023-07-20T04:56:06;25.70;97.50
23731;DHT22;12046;44.702;10.622;2023-07-20T04:58:47;25.80;97.40
23731;DHT22;12046;44.702;10.622;2023-07-20T05:01:15;25.80;97.40
23731;DHT22;12046;44.702;10.622;2023-07-20T05:06:42;26.00;97.30
23731;DHT22;12046;44.702;10.622;2023-07-20T05:09:35;26.10;97.20
23731;DHT22;12046;44.702;10.622;2023-07-20T05:12:04;26.20;97.10
23731;DHT22;12046;44.702;10.622;2023-07-20T05:14:30;26.30;97.00
23731;DHT22;12046;44.702;10.622;2023-07-20T05:16:58;26.40;97.00
23731;DHT22;12046;44.702;10.622;2023-07-20T05:19:25;26.50;96.90
23731;DHT22;12046;44.702;10.622;2023-07-20T05:21:51;26.60;96.80
23731;DHT22;12046;44.702;10.622;2023-07-20T05:24:32;26.70;96.70
23731;DHT22;12046;44.702;10.622;2023-07-20T05:30:42;26.90;96.40
23731;DHT22;12046;44.702;10.622;2023-07-20T05:33:12;27.00;96.30
23731;DHT22;12046;44.702;10.622;2023-07-20T05:38:55;27.20;96.20
23731;DHT22;12046;44.702;10.622;2023-07-20T06:21:52;27.90;94.70
23731;DHT22;12046;44.702;10.622;2023-07-20T06:24:43;28.00;94.80
23731;DHT22;12046;44.702;10.622;2023-07-20T06:27:12;28.00;94.70
23731;DHT22;12046;44.702;10.622;2023-07-20T06:29:38;28.10;94.70
23731;DHT22;12046;44.702;10.622;2023-07-20T06:32:09;28.20;94.60
23731;DHT22;12046;44.702;10.622;2023-07-20T06:34:38;28.20;94.50
23731;DHT22;12046;44.702;10.622;2023-07-20T06:37:10;28.30;94.40
23731;DHT22;12046;44.702;10.622;2023-07-20T06:39:38;28.40;94.30
23731;DHT22;12046;44.702;10.622;2023-07-20T06:42:10;28.50;94.20
23731;DHT22;12046;44.702;10.622;2023-07-20T06:44:38;28.60;94.00
23731;DHT22;12046;44.702;10.622;2023-07-20T06:47:15;28.70;93.90
23731;DHT22;12046;44.702;10.622;2023-07-20T06:49:47;28.80;93.80
23731;DHT22;12046;44.702;10.622;2023-07-20T06:52:15;28.90;93.70
23731;DHT22;12046;44.702;10.622;2023-07-20T06:54:44;28.90;93.60
23731;DHT22;12046;44.702;10.622;2023-07-20T06:57:28;29.00;93.40
23731;DHT22;12046;44.702;10.622;2023-07-20T07:00:06;29.10;93.30
23731;DHT22;12046;44.702;10.622;2023-07-20T07:02:59;29.10;93.00
23731;DHT22;12046;44.702;10.622;2023-07-20T07:05:44;29.10;92.90
23731;DHT22;12046;44.702;10.622;2023-07-20T07:08:13;29.20;92.60
23731;DHT22;12046;44.702;10.622;2023-07-20T07:10:45;29.20;92.60
23731;DHT22;12046;44.702;10.622;2023-07-20T07:13:14;29.20;92.50
23731;DHT22;12046;44.702;10.622;2023-07-20T07:15:55;29.20;92.20
23731;DHT22;12046;44.702;10.622;2023-07-20T07:18:23;29.20;92.20
23731;DHT22;12046;44.702;10.622;2023-07-20T07:20:56;29.20;92.10
23731;DHT22;12046;44.702;10.622;2023-07-20T07:24:02;29.30;92.10
23731;DHT22;12046;44.702;10.622;2023-07-20T07:26:45;29.50;92.10
23731;DHT22;12046;44.702;10.622;2023-07-20T07:29:23;29.60;91.90
23731;DHT22;12046;44.702;10.622;2023-07-20T07:31:54;29.70;91.70
23731;DHT22;12046;44.702;10.622;2023-07-20T07:34:23;29.80;91.70
23731;DHT22;12046;44.702;10.622;2023-07-20T07:36:54;29.90;91.60
23731;DHT22;12046;44.702;10.622;2023-07-20T07:39:26;30.00;91.40
23731;DHT22;12046;44.702;10.622;2023-07-20T07:41:58;30.10;91.30
23731;DHT22;12046;44.702;10.622;2023-07-20T07:44:36;30.20;91.20
23731;DHT22;12046;44.702;10.622;2023-07-20T07:47:02;30.30;91.10
23731;DHT22;12046;44.702;10.622;2023-07-20T07:49:31;30.40;91.00
23731;DHT22;12046;44.702;10.622;2023-07-20T07:51:57;30.40;90.90
23731;DHT22;12046;44.702;10.622;2023-07-20T07:54:22;30.40;90.80
23731;DHT22;12046;44.702;10.622;2023-07-20T07:56:48;30.40;90.70
23731;DHT22;12046;44.702;10.622;2023-07-20T07:59:14;30.40;91.00
23731;DHT22;12046;44.702;10.622;2023-07-20T08:01:40;30.40;90.70
23731;DHT22;12046;44.702;10.622;2023-07-20T08:04:06;30.40;90.60
23731;DHT22;12046;44.702;10.622;2023-07-20T08:06:31;30.40;90.70
23731;DHT22;12046;44.702;10.622;2023-07-20T08:08:57;30.40;90.70
23731;DHT22;12046;44.702;10.622;2023-07-20T08:11:23;30.40;90.70
23731;DHT22;12046;44.702;10.622;2023-07-20T08:13:49;30.50;90.70
23731;DHT22;12046;44.702;10.622;2023-07-20T08:16:15;30.60;90.70
23731;DHT22;12046;44.702;10.622;2023-07-20T08:18:41;30.60;90.60
23731;DHT22;12046;44.702;10.622;2023-07-20T08:21:07;30.70;90.60
23731;DHT22;12046;44.702;10.622;2023-07-20T08:23:33;30.70;90.60
23731;DHT22;12046;44.702;10.622;2023-07-20T08:25:59;30.70;90.50
23731;DHT22;12046;44.702;10.622;2023-07-20T08:28:26;30.80;90.50
23731;DHT22;12046;44.702;10.622;2023-07-20T08:30:52;30.80;90.40
23731;DHT22;12046;44.702;10.622;2023-07-20T08:33:18;30.90;90.40
23731;DHT22;12046;44.702;10.622;2023-07-20T08:35:48;31.00;90.40
23731;DHT22;12046;44.702;10.622;2023-07-20T08:38:14;31.10;90.40
23731;DHT22;12046;44.702;10.622;2023-07-20T08:40:45;31.20;90.30
23731;DHT22;12046;44.702;10.622;2023-07-20T08:43:12;31.30;90.20
23731;DHT22;12046;44.702;10.622;2023-07-20T08:45:41;31.40;90.20
23731;DHT22;12046;44.702;10.622;2023-07-20T08:48:07;31.60;90.10
23731;DHT22;12046;44.702;10.622;2023-07-20T08:50:34;31.70;90.00
23731;DHT22;12046;44.702;10.622;2023-07-20T08:53:00;31.80;89.90
23731;DHT22;12046;44.702;10.622;2023-07-20T08:55:27;31.80;88.90
23731;DHT22;12046;44.702;10.622;2023-07-20T08:57:56;31.80;88.90
23731;DHT22;12046;44.702;10.622;2023-07-20T09:00:23;31.80;88.90
23731;DHT22;12046;44.702;10.622;2023-07-20T09:02:52;31.90;88.90
23731;DHT22;12046;44.702;10.622;2023-07-20T09:05:22;32.00;88.90
23731;DHT22;12046;44.702;10.622;2023-07-20T09:07:48;32.10;88.30
23731;DHT22;12046;44.702;10.622;2023-07-20T09:10:14;32.20;88.20
23731;DHT22;12046;44.702;10.622;2023-07-20T09:12:42;32.30;88.30
23731;DHT22;12046;44.702;10.622;2023-07-20T09:15:09;32.30;88.30
23731;DHT22;12046;44.702;10.622;2023-07-20T09:17:36;32.50;88.40
23731;DHT22;12046;44.702;10.622;2023-07-20T09:20:07;32.60;88.50
23731;DHT22;12046;44.702;10.622;2023-07-20T09:22:36;32.70;88.40
23731;DHT22;12046;44.702;10.622;2023-07-20T09:25:15;32.90;88.10
23731;DHT22;12046;44.702;10.622;2023-07-20T09:27:46;32.90;87.70
23731;DHT22;12046;44.702;10.622;2023-07-20T09:30:13;32.90;87.60
23731;DHT22;12046;44.702;10.622;2023-07-20T09:32:49;32.90;87.70
23731;DHT22;12046;44.702;10.622;2023-07-20T09:35:21;32.90;87.60
23731;DHT22;12046;44.702;10.622;2023-07-20T09:37:57;32.90;87.70
23731;DHT22;12046;44.702;10.622;2023-07-20T09:40:24;32.90;87.70
23731;DHT22;12046;44.702;10.622;2023-07-20T09:42:52;33.00;87.70
23731;DHT22;12046;44.702;10.622;2023-07-20T09:45:18;33.10;87.70
23731;DHT22;12046;44.702;10.622;2023-07-20T09:47:44;33.20;87.60
23731;DHT22;12046;44.702;10.622;2023-07-20T09:50:09;33.30;87.60
23731;DHT22;12046;44.702;10.622;2023-07-20T09:52:41;33.40;87.40
23731;DHT22;12046;44.702;10.622;2023-07-20T09:55:08;33.50;87.30
23731;DHT22;12046;44.702;10.622;2023-07-20T09:57:35;33.60;87.10
23731;DHT22;12046;44.702;10.622;2023-07-20T10:00:04;33.70;87.00
23731;DHT22;12046;44.702;10.622;2023-07-20T10:02:37;33.80;86.90
23731;DHT22;12046;44.702;10.622;2023-07-20T10:05:08;33.90;86.90
23731;DHT22;12046;44.702;10.622;2023-07-20T10:07:36;33.90;86.70
23731;DHT22;12046;44.702;10.622;2023-07-20T10:10:06;34.00;86.50
23731;DHT22;12046;44.702;10.622;2023-07-20T10:12:34;34.10;86.30
23731;DHT22;12046;44.702;10.622;2023-07-20T10:15:11;34.20;86.20
23731;DHT22;12046;44.702;10.622;2023-07-20T10:17:40;34.20;85.90
23731;DHT22;12046;44.702;10.622;2023-07-20T10:20:16;34.20;86.30
23731;DHT22;12046;44.702;10.622;2023-07-20T10:22:46;34.20;85.40
23731;DHT22;12046;44.702;10.622;2023-07-20T10:25:13;34.20;85.30
23731;DHT22;12046;44.702;10.622;2023-07-20T10:27:40;34.30;85.20
23731;DHT22;12046;44.702;10.622;2023-07-20T10:30:07;34.30;85.00
23731;DHT22;12046;44.702;10.622;2023-07-20T10:32:33;34.30;84.90
23731;DHT22;12046;44.702;10.622;2023-07-20T10:34:59;34.30;84.70
23731;DHT22;12046;44.702;10.622;2023-07-20T10:37:47;34.30;84.70
23731;DHT22;12046;44.702;10.622;2023-07-20T10:40:27;34.40;84.80
23731;DHT22;12046;44.702;10.622;2023-07-20T10:43:11;34.30;84.80
23731;DHT22;12046;44.702;10.622;2023-07-20T10:45:52;34.40;84.90
23731;DHT22;12046;44.702;10.622;2023-07-20T10:48:24;34.40;84.60
23731;DHT22;12046;44.702;10.622;2023-07-20T10:53:36;34.40;84.30
23731;DHT22;12046;44.702;10.622;2023-07-20T10:56:15;34.30;84.40
23731;DHT22;12046;44.702;10.622;2023-07-20T10:58:44;34.30;84.40
23731;DHT22;12046;44.702;10.622;2023-07-20T11:01:14;34.40;84.30
23731;DHT22;12046;44.702;10.622;2023-07-20T11:03:40;34.40;84.80
23731;DHT22;12046;44.702;10.622;2023-07-20T11:09:04;34.60;84.20
23731;DHT22;12046;44.702;10.622;2023-07-20T11:11:33;34.70;84.10
23731;DHT22;12046;44.702;10.622;2023-07-20T11:14:07;34.70;83.90
23731;DHT22;12046;44.702;10.622;2023-07-20T11:16:44;34.80;83.80
23731;DHT22;12046;44.702;10.622;2023-07-20T11:19:21;34.90;83.10
23731;DHT22;12046;44.702;10.622;2023-07-20T11:21:55;34.80;82.60
23731;DHT22;12046;44.702;10.622;2023-07-20T11:24:21;34.80;82.60
23731;DHT22;12046;44.702;10.622;2023-07-20T11:26:49;34.80;82.60
23731;DHT22;12046;44.702;10.622;2023-07-20T11:29:19;34.80;82.50
23731;DHT22;12046;44.702;10.622;2023-07-20T11:31:46;34.90;82.30
23731;DHT22;12046;44.702;10.622;2023-07-20T11:36:44;34.90;80.80
23731;DHT22;12046;44.702;10.622;2023-07-20T11:39:16;35.00;80.60
23731;DHT22;12046;44.702;10.622;2023-07-20T11:41:49;34.90;80.30
23731;DHT22;12046;44.702;10.622;2023-07-20T11:44:23;35.00;79.70
23731;DHT22;12046;44.702;10.622;2023-07-20T11:47:09;35.00;79.50
23731;DHT22;12046;44.702;10.622;2023-07-20T11:49:40;34.90;79.40
23731;DHT22;12046;44.702;10.622;2023-07-20T11:52:07;34.80;79.20
23731;DHT22;12046;44.702;10.622;2023-07-20T11:54:35;34.70;78.90
23731;DHT22;12046;44.702;10.622;2023-07-20T11:57:02;34.60;78.90
23731;DHT22;12046;44.702;10.622;2023-07-20T11:59:28;34.50;79.20
23731;DHT22;12046;44.702;10.622;2023-07-20T12:01:54;34.40;79.50
23731;DHT22;12046;44.702;10.622;2023-07-20T12:04:22;34.40;79.60
23731;DHT22;12046;44.702;10.622;2023-07-20T12:06:48;34.40;79.90
23731;DHT22;12046;44.702;10.622;2023-07-20T12:09:16;34.40;80.10
23731;DHT22;12046;44.702;10.622;2023-07-20T12:11:43;34.50;80.30
23731;DHT22;12046;44.702;10.622;2023-07-20T12:14:10;34.60;80.40
23731;DHT22;12046;44.702;10.622;2023-07-20T12:33:54;34.60;79.60
23731;DHT22;12046;44.702;10.622;2023-07-20T12:36:24;34.40;80.90
23731;DHT22;12046;44.702;10.622;2023-07-20T12:38:50;34.40;80.90
23731;DHT22;12046;44.702;10.622;2023-07-20T12:41:16;34.50;80.90
23731;DHT22;12046;44.702;10.622;2023-07-20T12:43:44;34.60;80.80
23731;DHT22;12046;44.702;10.622;2023-07-20T12:46:10;34.70;80.50
23731;DHT22;12046;44.702;10.622;2023-07-20T12:48:40;34.80;80.20
23731;DHT22;12046;44.702;10.622;2023-07-20T12:51:08;34.90;79.80
23731;DHT22;12046;44.702;10.622;2023-07-20T12:53:34;35.00;79.50
23731;DHT22;12046;44.702;10.622;2023-07-20T12:56:01;35.10;79.40
23731;DHT22;12046;44.702;10.622;2023-07-20T12:58:29;35.20;79.30
23731;DHT22;12046;44.702;10.622;2023-07-20T13:00:55;35.40;79.20
23731;DHT22;12046;44.702;10.622;2023-07-20T13:03:21;35.40;78.80
23731;DHT22;12046;44.702;10.622;2023-07-20T13:05:47;35.50;78.60
23731;DHT22;12046;44.702;10.622;2023-07-20T13:08:13;35.60;78.20
23731;DHT22;12046;44.702;10.622;2023-07-20T13:10:39;35.60;78.00
23731;DHT22;12046;44.702;10.622;2023-07-20T13:13:05;35.60;78.00
23731;DHT22;12046;44.702;10.622;2023-07-20T13:15:32;35.50;78.20
23731;DHT22;12046;44.702;10.622;2023-07-20T13:18:06;35.50;78.20
23731;DHT22;12046;44.702;10.622;2023-07-20T13:20:31;35.50;78.20
23731;DHT22;12046;44.702;10.622;2023-07-20T13:22:57;35.60;78.20
23731;DHT22;12046;44.702;10.622;2023-07-20T13:25:24;35.60;78.30
23731;DHT22;12046;44.702;10.622;2023-07-20T13:27:50;35.60;78.40
23731;DHT22;12046;44.702;10.622;2023-07-20T13:30:15;35.60;78.30
23731;DHT22;12046;44.702;10.622;2023-07-20T13:32:44;35.70;78.10
23731;DHT22;12046;44.702;10.622;2023-07-20T13:35:11;35.70;78.00
23731;DHT22;12046;44.702;10.622;2023-07-20T13:37:37;35.70;77.90
23731;DHT22;12046;44.702;10.622;2023-07-20T13:40:03;35.70;77.80
23731;DHT22;12046;44.702;10.622;2023-07-20T13:42:31;35.60;77.80
23731;DHT22;12046;44.702;10.622;2023-07-20T13:44:57;35.60;77.80
23731;DHT22;12046;44.702;10.622;2023-07-20T13:47:24;35.50;78.40
23731;DHT22;12046;44.702;10.622;2023-07-20T13:49:49;35.60;77.90
23731;DHT22;12046;44.702;10.622;2023-07-20T13:52:15;35.60;77.90
23731;DHT22;12046;44.702;10.622;2023-07-20T13:54:41;35.50;77.80
23731;DHT22;12046;44.702;10.622;2023-07-20T13:57:07;35.50;77.80
23731;DHT22;12046;44.702;10.622;2023-07-20T13:59:33;35.50;77.70
23731;DHT22;12046;44.702;10.622;2023-07-20T14:01:59;35.50;77.60
23731;DHT22;12046;44.702;10.622;2023-07-20T14:04:24;35.50;77.50
23731;DHT22;12046;44.702;10.622;2023-07-20T14:06:51;35.50;77.40
23731;DHT22;12046;44.702;10.622;2023-07-20T14:09:17;35.60;77.40
23731;DHT22;12046;44.702;10.622;2023-07-20T14:11:42;35.60;77.40
23731;DHT22;12046;44.702;10.622;2023-07-20T14:14:09;35.70;77.50
23731;DHT22;12046;44.702;10.622;2023-07-20T14:16:35;35.60;77.40
23731;DHT22;12046;44.702;10.622;2023-07-20T14:19:01;35.50;77.30
23731;DHT22;12046;44.702;10.622;2023-07-20T14:21:27;35.50;77.50
23731;DHT22;12046;44.702;10.622;2023-07-20T14:23:54;35.30;77.70
23731;DHT22;12046;44.702;10.622;2023-07-20T14:26:20;35.20;77.80
23731;DHT22;12046;44.702;10.622;2023-07-20T14:28:46;35.20;77.80
23731;DHT22;12046;44.702;10.622;2023-07-20T14:31:12;35.20;77.90
23731;DHT22;12046;44.702;10.622;2023-07-20T14:33:39;35.10;77.80
23731;DHT22;12046;44.702;10.622;2023-07-20T14:36:05;35.10;78.00
23731;DHT22;12046;44.702;10.622;2023-07-20T14:38:32;34.90;78.00
23731;DHT22;12046;44.702;10.622;2023-07-20T14:40:59;34.80;78.10
23731;DHT22;12046;44.702;10.622;2023-07-20T14:43:25;34.70;78.30
23731;DHT22;12046;44.702;10.622;2023-07-20T14:45:50;34.70;78.50
23731;DHT22;12046;44.702;10.622;2023-07-20T14:48:16;34.60;78.60
23731;DHT22;12046;44.702;10.622;2023-07-20T14:50:42;34.60;78.80
23731;DHT22;12046;44.702;10.622;2023-07-20T14:53:12;34.50;78.80
23731;DHT22;12046;44.702;10.622;2023-07-20T14:55:37;34.40;78.90
23731;DHT22;12046;44.702;10.622;2023-07-20T14:58:03;34.40;79.00
23731;DHT22;12046;44.702;10.622;2023-07-20T15:00:29;34.40;79.10
23731;DHT22;12046;44.702;10.622;2023-07-20T15:02:56;34.40;79.30
23731;DHT22;12046;44.702;10.622;2023-07-20T15:05:23;34.40;79.40
23731;DHT22;12046;44.702;10.622;2023-07-20T15:07:49;34.40;79.60
23731;DHT22;12046;44.702;10.622;2023-07-20T15:10:16;34.60;79.80
23731;DHT22;12046;44.702;10.622;2023-07-20T15:12:42;34.60;79.80
23731;DHT22;12046;44.702;10.622;2023-07-20T15:15:09;34.70;79.80
23731;DHT22;12046;44.702;10.622;2023-07-20T15:17:36;34.70;79.80
23731;DHT22;12046;44.702;10.622;2023-07-20T15:20:03;34.70;79.80
23731;DHT22;12046;44.702;10.622;2023-07-20T15:22:30;34.80;79.70
23731;DHT22;12046;44.702;10.622;2023-07-20T15:24:57;34.80;79.70
23731;DHT22;12046;44.702;10.622;2023-07-20T15:27:22;34.90;79.70
23731;DHT22;12046;44.702;10.622;2023-07-20T15:29:49;34.90;79.60
23731;DHT22;12046;44.702;10.622;2023-07-20T15:32:18;34.90;79.50
23731;DHT22;12046;44.702;10.622;2023-07-20T15:34:47;34.90;79.40
23731;DHT22;12046;44.702;10.622;2023-07-20T15:37:14;34.80;79.50
23731;DHT22;12046;44.702;10.622;2023-07-20T15:39:40;34.80;79.50
23731;DHT22;12046;44.702;10.622;2023-07-20T15:42:07;34.80;79.60
23731;DHT22;12046;44.702;10.622;2023-07-20T15:44:33;34.80;79.70
23731;DHT22;12046;44.702;10.622;2023-07-20T15:46:59;34.80;79.70
23731;DHT22;12046;44.702;10.622;2023-07-20T15:49:27;34.80;79.90
23731;DHT22;12046;44.702;10.622;2023-07-20T15:51:54;34.90;79.90
23731;DHT22;12046;44.702;10.622;2023-07-20T15:54:20;34.90;79.90
23731;DHT22;12046;44.702;10.622;2023-07-20T15:56:46;34.90;80.50
23731;DHT22;12046;44.702;10.622;2023-07-20T15:59:13;35.00;79.90
23731;DHT22;12046;44.702;10.622;2023-07-20T16:01:40;34.90;79.80
23731;DHT22;12046;44.702;10.622;2023-07-20T16:04:07;34.90;79.90
23731;DHT22;12046;44.702;10.622;2023-07-20T16:06:33;34.80;79.90
23731;DHT22;12046;44.702;10.622;2023-07-20T16:09:04;34.80;80.00
23731;DHT22;12046;44.702;10.622;2023-07-20T16:11:33;34.80;80.20
23731;DHT22;12046;44.702;10.622;2023-07-20T16:14:03;34.70;80.10
23731;DHT22;12046;44.702;10.622;2023-07-20T16:16:30;34.70;80.30
23731;DHT22;12046;44.702;10.622;2023-07-20T16:18:56;34.70;80.40
23731;DHT22;12046;44.702;10.622;2023-07-20T16:21:22;34.70;80.60
23731;DHT22;12046;44.702;10.622;2023-07-20T16:23:49;34.60;80.60
23731;DHT22;12046;44.702;10.622;2023-07-20T16:26:15;34.60;80.80
23731;DHT22;12046;44.702;10.622;2023-07-20T16:28:40;34.60;80.80
23731;DHT22;12046;44.702;10.622;2023-07-20T16:31:13;34.50;80.90
23731;DHT22;12046;44.702;10.622;2023-07-20T16:33:50;34.50;80.90
23731;DHT22;12046;44.702;10.622;2023-07-20T16:36:16;34.50;81.00
23731;DHT22;12046;44.702;10.622;2023-07-20T16:38:45;34.50;81.10
23731;DHT22;12046;44.702;10.622;2023-07-20T16:41:11;34.60;81.20
23731;DHT22;12046;44.702;10.622;2023-07-20T16:43:39;34.50;81.20
23731;DHT22;12046;44.702;10.622;2023-07-20T16:46:06;34.60;81.30
23731;DHT22;12046;44.702;10.622;2023-07-20T16:48:33;34.50;81.40
23731;DHT22;12046;44.702;10.622;2023-07-20T16:51:00;34.60;81.50
23731;DHT22;12046;44.702;10.622;2023-07-20T16:53:33;34.50;81.60
23731;DHT22;12046;44.702;10.622;2023-07-20T16:55:59;34.40;81.70
23731;DHT22;12046;44.702;10.622;2023-07-20T16:58:26;34.40;81.80